createdAt,value
2022-11-09T15:02:46.857Z,50.35
2022-11-09T15:05:02.338Z,50.78
2022-11-09T15:07:05.047Z,50.95
2022-11-09T15:09:09.604Z,51.41
2022-11-09T15:11:11.510Z,50.43
2022-11-09T15:13:13.210Z,50.46
2022-11-09T15:15:21.399Z,50.56
2022-11-09T15:17:27.330Z,51.38
2022-11-09T15:19:36.865Z,51.44
2022-11-09T15:21:38.732Z,51.62
2022-11-09T15:23:43.284Z,51.93
2022-11-09T15:25:45.796Z,51.77
2022-11-09T15:28:09.361Z,52.11
2022-11-09T15:30:43.138Z,52.10
2022-11-09T15:32:48.672Z,52.58
2022-11-09T15:34:59.287Z,52.66
2022-11-09T15:37:01.358Z,52.36
2022-11-09T15:39:14.814Z,52.93
2022-11-09T15:41:22.984Z,52.97
2022-11-09T15:43:25.279Z,52.83
2022-11-09T15:45:27.096Z,52.62
2022-11-09T15:47:33.598Z,52.69
2022-11-09T15:49:35.269Z,52.71
2022-11-09T15:51:37.494Z,53.06
2022-11-09T15:53:39.975Z,53.09
2022-11-09T15:55:41.557Z,52.90
2022-11-09T15:57:43.577Z,53.35
2022-11-09T15:59:50.168Z,53.52
2022-11-09T16:01:52.049Z,53.39
2022-11-09T16:03:53.747Z,52.87
2022-11-09T16:05:55.487Z,53.21
2022-11-09T16:07:57.587Z,53.14
2022-11-09T16:10:01.861Z,53.67
2022-11-09T16:12:04.101Z,53.73
2022-11-09T16:14:06.701Z,53.98
2022-11-09T16:16:11.050Z,54.12
2022-11-09T16:18:12.697Z,53.93
2022-11-09T16:20:15.051Z,54.44
2022-11-09T16:22:16.751Z,54.58
2022-11-09T16:24:18.909Z,54.66
2022-11-09T16:26:20.826Z,54.93
2022-11-09T16:28:24.279Z,54.93
2022-11-09T16:30:28.293Z,54.81
2022-11-09T16:32:30.553Z,55.16
2022-11-09T16:34:32.224Z,55.43
2022-11-09T16:36:34.122Z,55.29
2022-11-09T16:38:42.364Z,55.54
2022-11-09T16:40:44.752Z,55.51
2022-11-09T16:42:48.252Z,55.63
2022-11-09T16:44:49.904Z,55.96
2022-11-09T16:46:52.231Z,56.10
2022-11-09T16:48:54.834Z,55.84
2022-11-09T16:50:56.489Z,56.26
2022-11-09T16:52:58.074Z,56.05
2022-11-09T16:54:59.756Z,56.17
2022-11-09T16:57:01.760Z,56.42
2022-11-09T16:59:03.648Z,56.55
2022-11-09T17:01:14.519Z,56.74
2022-11-09T17:03:18.420Z,57.11
2022-11-09T17:05:20.327Z,57.75
2022-11-09T17:07:22.023Z,57.67
2022-11-09T17:09:23.762Z,57.79
2022-11-09T17:11:26.253Z,58.10
2022-11-09T17:13:27.983Z,57.76
2022-11-09T17:15:29.584Z,57.93
2022-11-09T17:17:31.273Z,57.81
2022-11-09T17:19:34.599Z,57.83
2022-11-09T17:21:36.589Z,57.68
2022-11-09T17:23:38.852Z,57.97
2022-11-09T17:25:41.265Z,57.85
2022-11-09T17:27:42.873Z,58.18
2022-11-09T17:29:44.465Z,58.18
2022-11-09T17:31:46.074Z,58.10
2022-11-09T17:33:48.532Z,58.39
2022-11-09T17:35:59.291Z,58.57
2022-11-09T17:38:00.752Z,58.86
2022-11-09T17:40:02.572Z,58.86
2022-11-09T17:42:04.288Z,59.47
2022-11-09T17:44:06.035Z,59.75
2022-11-09T17:46:19.134Z,59.56
2022-11-09T17:48:21.160Z,59.74
2022-11-09T17:50:23.086Z,59.98
2022-11-09T17:52:25.262Z,60.07
2022-11-09T17:54:33.925Z,60.24
2022-11-09T17:56:38.653Z,60.22
2022-11-09T17:58:42.695Z,60.08
2022-11-09T18:00:45.160Z,60.33
2022-11-09T18:02:46.936Z,60.60
2022-11-09T18:04:48.666Z,60.68
2022-11-09T18:06:50.407Z,60.75
2022-11-09T18:09:19.391Z,60.70
2022-11-09T18:11:15.333Z,61.17
2022-11-09T18:13:17.157Z,61.12
2022-11-09T18:15:18.806Z,61.28
2022-11-09T18:17:20.555Z,61.40
2022-11-09T18:19:22.301Z,61.94
2022-11-09T18:21:24.963Z,61.65
2022-11-09T18:23:26.558Z,62.11
2022-11-09T18:25:28.414Z,62.34
2022-11-09T18:27:30.636Z,62.12
2022-11-09T18:29:32.282Z,62.56
2022-11-09T18:31:34.095Z,62.76
2022-11-09T18:33:36.254Z,63.15
2022-11-09T18:35:37.909Z,63.04
2022-11-09T18:37:39.737Z,63.09
2022-11-09T18:39:41.343Z,63.40
2022-11-09T18:41:42.952Z,63.36
2022-11-09T18:43:47.720Z,63.32
2022-11-09T18:46:04.000Z,63.77
2022-11-09T18:48:05.828Z,64.13
2022-11-09T18:50:07.937Z,63.91
2022-11-09T18:52:09.666Z,63.96
2022-11-09T18:54:11.284Z,63.79
2022-11-09T18:56:21.956Z,63.61
2022-11-09T18:58:23.850Z,63.51
2022-11-09T19:00:25.728Z,63.67
2022-11-09T19:02:27.390Z,63.86
2022-11-09T19:04:29.033Z,63.90
2022-11-09T19:06:30.891Z,63.79
2022-11-09T19:08:51.709Z,63.95
2022-11-09T19:10:53.253Z,63.94
2022-11-09T19:12:55.138Z,64.10
2022-11-09T19:14:56.767Z,64.34
2022-11-09T19:16:58.446Z,64.16
2022-11-09T19:19:00.066Z,64.09
2022-11-09T19:21:01.986Z,64.27
2022-11-09T19:23:03.674Z,64.12
2022-11-09T19:25:05.881Z,63.95
2022-11-09T19:27:07.505Z,64.29
2022-11-09T19:29:10.881Z,64.22
2022-11-09T19:31:15.015Z,64.12
2022-11-09T19:33:16.751Z,64.23
2022-11-09T19:35:24.024Z,64.14
2022-11-09T19:37:28.185Z,64.15
2022-11-09T19:39:33.675Z,63.93
2022-11-09T19:41:36.713Z,64.13
2022-11-09T19:43:38.359Z,64.45
2022-11-09T19:45:42.845Z,64.01
2022-11-09T19:47:44.541Z,63.83
2022-11-09T19:49:46.143Z,63.94
2022-11-09T19:51:47.894Z,64.02
2022-11-09T19:54:03.987Z,63.92
2022-11-09T19:56:08.727Z,63.85
2022-11-09T19:58:10.949Z,63.81
2022-11-09T20:00:12.967Z,63.71
2022-11-09T20:02:15.100Z,63.88
2022-11-09T20:04:16.698Z,63.93
2022-11-09T20:06:19.135Z,63.96
2022-11-09T20:08:21.085Z,64.20
2022-11-09T20:10:24.142Z,64.08
2022-11-09T20:12:44.289Z,64.06
2022-11-09T20:14:45.993Z,63.88
2022-11-09T20:16:48.522Z,64.09
2022-11-09T20:18:50.222Z,63.83
2022-11-09T20:20:54.147Z,63.92
2022-11-09T20:22:55.879Z,63.96
2022-11-09T20:24:57.742Z,64.19
2022-11-09T20:26:59.385Z,64.18
2022-11-09T20:29:01.030Z,64.28
2022-11-09T20:31:13.503Z,64.26
